Fortaleza, Brazil

09:13 AM BRT em 28 de Fevereiro de 2017 (GMT -0300)
Pinto Martins International | | Change Station

Elev 82 ft 3.78 °S, 38.53 °W | Updated 13 minutes ago

Scattered Clouds
Nuvens Dispersas
82 °F
Aparente 90 °F
N
12
Vento Variável Vento de Este

Hoje
Máxima -- | Mínima -- °F
--% Possibilidade de Precip.
Ontem
Máxima -- | Mínima -- °F
Precip. -- pol
Pressão 29.86 pol
Visibilidade 6.2 milhas
Nuvens Nuvens Dispersas 2000 ft
Índice de Calor 90 °F
Ponto de Orvalho 75 °F
Humidade 79%
Chuva 0.00 pol
Altura de Neve Não disponível
5:41 AM 5:51 PM
Quarto crescente, 4% visible
METAR SBFZ 281200Z 09010KT 9999 SCT020 28/24 Q1011
Pressão 29.86 pol
Visibilidade 6.2 milhas
Nuvens Nuvens Dispersas 2000 ft
Índice de Calor 90 °F
Ponto de Orvalho 75 °F
Humidade 79%
Chuva 0.00 pol
Altura de Neve Não disponível
5:41 AM 5:51 PM
Quarto crescente, 4% visible
METAR SBFZ 281200Z 09010KT 9999 SCT020 28/24 Q1011

Get Your Daily Forecast Email!

Thanks for signing up!

Be on the lookout for a verification email in your inbox.

You'll start receiving the daily forecast at 8 AM.

×

10-Day Weather Forecast

No radar image for this location.
×

Almanac

Astronomia

Feb. 28, 2017 Nascer Pôr
Hora atual
Crepúsculo civil
Crepúsculo náutico
Crepúsculo astronómico
Lua
Comprimento da luz visível
Duração do Dia
Tomorrow will be .
, % of the Moon is Illuminated

Extremos de Hoje

Altitude na localidade Altura mais baixa na localidade

Community

WunderPhotos

Upload Photos

1,962,540 fotografias inseridas!

WunderBlog® & News

Nearby

Qualidade do Ar

  Qualidade do Ar Índice da Q.A. Poluente
Not available.

Altura da Neve

Estação altura Altitude

Actividade Sísmisca

Cidade Distância Mag. Hora & Data
Mínima magnitude apresentada é 2.5.

Temperaturas das Águas Costeiras

Local Temperatura

Stations

Estações Meteorológicas Próximas

Localização da Estação Temp. Sensação Térmica Ponto de Orvalho Humidade Vento Precip. Elev Actualizado Tipo